PILOTS ONLINE: 538    ATC ONLINE: 104

KSNA

John Wayne Airport-Orange County Airport

Location

IATA SNA
City Santa Ana
Country  United States
Latitude 33° 40' 32" N
Longitude 117° 52' 4" W
Elevation 56 ft
Type Large Airport

Map

Weather

METAR
2014/09/23 19:53
KSNA 231953Z 23006KT 7SM FEW010 28/17 A2994 RMK AO2 SLP138 T02830172
TAF
2014/09/23 18:39
TAF KSNA 231732Z 2318/2418 VRB06KT P6SM FEW010 
     FM231900 23008KT P6SM SKC 
     FM240200 VRB04KT P6SM SCT007 
     FM240900 VRB05KT 5SM BR BKN007 
     FM241200 VRB04KT 2SM BR BKN005 
     FM241400 VRB05KT 5SM BR FEW007

Runways

01L/19R 5700 ft / 150 ft
01R/19L 2887 ft / 75 ft

Outbound flights

Callsign Flying to Pilot ATD/STD ETA Aircraft

Inbound flights

Callsign Flying from Pilot ATD ETA Aircraft